Time;durP1;ratioP1;P1;durP2;ratioP2;P2;SDS_P1;SDS_P2;PMS_P1;PMS_P2;Temp;Humidity;BMP_temperature;BMP_pressure;BME280_temperature;BME280_humidity;BME280_pressure;Samples;Min_cycle;Max_cycle;Signal;HPM_P1;HPM_P2
2021/08/21 00:01:04;;;;;;;4.13;3.58;;;;;;;;;;5085987;28;20193;-43
2021/08/21 00:03:31;;;;;;;5.90;3.88;;;;;;;;;;5090941;28;20221;-44
2021/08/21 00:05:57;;;;;;;6.32;3.80;;;;;;;;;;5079844;28;20190;-43
2021/08/21 00:08:23;;;;;;;6.20;3.70;;;;;;;;;;5075929;28;20174;-43
2021/08/21 00:10:49;;;;;;;5.68;3.75;;;;;;;;;;5076863;28;20202;-43
2021/08/21 00:13:15;;;;;;;4.57;3.72;;;;;;;;;;5078301;28;20209;-43
2021/08/21 00:15:41;;;;;;;6.60;3.60;;;;;;;;;;5080840;28;20253;-44
2021/08/21 00:18:07;;;;;;;6.38;3.50;;;;;;;;;;5090827;28;20289;-44
2021/08/21 00:20:33;;;;;;;6.65;3.90;;;;;;;;;;5086650;28;20189;-43
2021/08/21 00:22:59;;;;;;;4.10;3.65;;;;;;;;;;5086375;28;20174;-43
2021/08/21 00:25:25;;;;;;;4.00;3.17;;;;;;;;;;5096785;28;20273;-43
2021/08/21 00:27:51;;;;;;;5.07;3.40;;;;;;;;;;5095476;28;20190;-43
2021/08/21 00:30:17;;;;;;;3.85;3.45;;;;;;;;;;5096420;28;20224;-43
2021/08/21 00:32:43;;;;;;;4.30;3.40;;;;;;;;;;5085395;28;20177;-43
2021/08/21 00:35:10;;;;;;;3.83;3.40;;;;;;;;;;5084463;28;20211;-43
2021/08/21 00:37:36;;;;;;;3.90;3.60;;;;;;;;;;5081799;28;20185;-43
2021/08/21 00:40:02;;;;;;;5.00;3.20;;;;;;;;;;5076135;28;20179;-43
2021/08/21 00:42:28;;;;;;;4.05;3.10;;;;;;;;;;5084178;28;20190;-43
2021/08/21 00:44:54;;;;;;;5.70;3.25;;;;;;;;;;5077308;28;20186;-43
2021/08/21 00:47:21;;;;;;;5.03;3.22;;;;;;;;;;5093287;28;20180;-43
2021/08/21 00:49:48;;;;;;;4.53;3.20;;;;;;;;;;5083169;28;20197;-43
2021/08/21 00:52:18;;;;;;;4.10;3.03;;;;;;;;;;5095199;28;20192;-43
2021/08/21 00:54:44;;;;;;;4.72;3.05;;;;;;;;;;5076045;28;20178;-43
2021/08/21 00:57:14;;;;;;;3.35;3.05;;;;;;;;;;5075438;28;20175;-43
2021/08/21 00:59:41;;;;;;;4.07;3.53;;;;;;;;;;5080858;28;20459;-43
2021/08/21 01:02:07;;;;;;;9.98;3.38;;;;;;;;;;5091804;28;20205;-43
2021/08/21 01:04:34;;;;;;;4.13;3.67;;;;;;;;;;5090278;28;20471;-43
2021/08/21 01:07:01;;;;;;;5.57;3.47;;;;;;;;;;5075153;28;20893;-43
2021/08/21 01:09:27;;;;;;;6.85;3.10;;;;;;;;;;5083986;28;20196;-43
2021/08/21 01:11:53;;;;;;;4.45;3.53;;;;;;;;;;5090027;28;20166;-43
2021/08/21 01:14:22;;;;;;;4.63;3.67;;;;;;;;;;5093697;28;20531;-43
2021/08/21 01:16:48;;;;;;;5.20;3.53;;;;;;;;;;5095809;28;20276;-43
2021/08/21 01:19:15;;;;;;;3.65;3.30;;;;;;;;;;5082925;28;20501;-43
2021/08/21 01:21:41;;;;;;;4.60;3.40;;;;;;;;;;5078299;28;20278;-43
2021/08/21 01:24:07;;;;;;;5.22;3.25;;;;;;;;;;5095561;28;20257;-43
2021/08/21 01:26:33;;;;;;;3.90;3.53;;;;;;;;;;5095602;28;20170;-43
2021/08/21 01:28:59;;;;;;;5.43;3.50;;;;;;;;;;5094897;28;20174;-43
2021/08/21 01:31:25;;;;;;;3.83;3.40;;;;;;;;;;5091729;28;20205;-43
2021/08/21 01:33:51;;;;;;;5.18;3.63;;;;;;;;;;5090157;28;20173;-44
2021/08/21 01:36:17;;;;;;;3.92;3.45;;;;;;;;;;5079253;28;20186;-43
2021/08/21 01:38:58;;;;;;;4.75;3.53;;;;;;;;;;5076992;28;20197;-43
2021/08/21 01:41:24;;;;;;;3.30;3.00;;;;;;;;;;5091217;28;20174;-43
2021/08/21 01:43:50;;;;;;;5.53;3.45;;;;;;;;;;5088638;28;20203;-43
2021/08/21 01:46:16;;;;;;;3.80;3.28;;;;;;;;;;5086586;28;20560;-43
2021/08/21 01:48:42;;;;;;;3.97;3.47;;;;;;;;;;5089279;28;20189;-43
2021/08/21 01:51:08;;;;;;;6.25;3.50;;;;;;;;;;5091885;28;20302;-43
2021/08/21 01:53:34;;;;;;;6.38;3.17;;;;;;;;;;5095185;28;20162;-43
2021/08/21 01:56:00;;;;;;;4.22;3.10;;;;;;;;;;5095083;28;20253;-43
2021/08/21 01:58:26;;;;;;;4.15;3.00;;;;;;;;;;5092986;28;20166;-43
2021/08/21 02:00:52;;;;;;;3.38;3.08;;;;;;;;;;5079823;28;20293;-43
2021/08/21 02:03:18;;;;;;;4.75;3.15;;;;;;;;;;5090137;28;20201;-43
2021/08/21 02:05:44;;;;;;;3.72;2.95;;;;;;;;;;5083592;28;20604;-43
2021/08/21 02:08:10;;;;;;;3.22;3.00;;;;;;;;;;5074018;28;20215;-43
2021/08/21 02:10:36;;;;;;;3.13;2.83;;;;;;;;;;5083296;28;20535;-43
2021/08/21 02:13:02;;;;;;;3.30;2.97;;;;;;;;;;5083396;28;20171;-43
2021/08/21 02:15:28;;;;;;;4.00;3.15;;;;;;;;;;5086658;28;20538;-44
2021/08/21 02:17:54;;;;;;;3.10;2.67;;;;;;;;;;5077084;28;20486;-43
2021/08/21 02:20:20;;;;;;;3.40;3.10;;;;;;;;;;5083816;28;20463;-43
2021/08/21 02:22:47;;;;;;;4.35;3.13;;;;;;;;;;5076759;28;20569;-43
2021/08/21 02:25:13;;;;;;;4.65;3.40;;;;;;;;;;5077747;28;20185;-43
2021/08/21 02:30:36;;;;;;;4.78;3.20;;;;;;;;;;5071975;28;20213;-43
2021/08/21 02:33:02;;;;;;;3.20;3.00;;;;;;;;;;5094654;28;20191;-43
2021/08/21 02:35:28;;;;;;;5.20;3.25;;;;;;;;;;5087764;28;20180;-43
2021/08/21 02:37:55;;;;;;;4.10;2.90;;;;;;;;;;5078278;28;20257;-43
2021/08/21 02:40:21;;;;;;;4.55;3.38;;;;;;;;;;5086000;28;20793;-43
2021/08/21 02:42:49;;;;;;;3.88;3.40;;;;;;;;;;5089404;28;20186;-43
2021/08/21 02:45:15;;;;;;;5.70;3.45;;;;;;;;;;5082873;28;20177;-43
2021/08/21 02:47:41;;;;;;;6.30;3.58;;;;;;;;;;5085224;28;20447;-43
2021/08/21 02:50:08;;;;;;;5.93;3.47;;;;;;;;;;5086384;28;20209;-43
2021/08/21 02:52:34;;;;;;;4.28;3.38;;;;;;;;;;5081967;28;20198;-43
2021/08/21 02:55:00;;;;;;;6.22;3.90;;;;;;;;;;5090994;28;20174;-43
2021/08/21 02:57:26;;;;;;;5.88;3.75;;;;;;;;;;5091152;28;20181;-43
2021/08/21 02:59:52;;;;;;;4.55;3.50;;;;;;;;;;5078695;28;20179;-43
2021/08/21 03:02:18;;;;;;;4.43;3.92;;;;;;;;;;5082965;28;20216;-43
2021/08/21 03:04:44;;;;;;;3.88;3.38;;;;;;;;;;5084425;28;20261;-43
2021/08/21 03:07:10;;;;;;;4.28;3.78;;;;;;;;;;5087146;28;20694;-44
2021/08/21 03:09:36;;;;;;;4.20;3.80;;;;;;;;;;5089737;28;20216;-43
2021/08/21 03:12:02;;;;;;;5.20;3.55;;;;;;;;;;5076718;28;20166;-43
2021/08/21 03:14:28;;;;;;;5.75;3.60;;;;;;;;;;5082332;28;20170;-43
2021/08/21 03:16:54;;;;;;;5.03;3.22;;;;;;;;;;5084150;28;20170;-43
2021/08/21 03:19:20;;;;;;;3.45;3.15;;;;;;;;;;5097577;28;20200;-43
2021/08/21 03:21:46;;;;;;;5.93;3.38;;;;;;;;;;5084873;28;20180;-43
2021/08/21 03:24:12;;;;;;;5.13;3.85;;;;;;;;;;5097766;28;20272;-43
2021/08/21 03:26:38;;;;;;;5.05;3.50;;;;;;;;;;5087732;28;20175;-43
2021/08/21 03:29:04;;;;;;;3.70;3.38;;;;;;;;;;5078528;28;20198;-43
2021/08/21 03:31:30;;;;;;;3.85;3.50;;;;;;;;;;5097904;28;20189;-43
2021/08/21 03:33:56;;;;;;;4.03;3.65;;;;;;;;;;5096716;28;20169;-43
2021/08/21 03:36:23;;;;;;;3.67;3.15;;;;;;;;;;5082103;28;20859;-43
2021/08/21 03:38:48;;;;;;;3.40;3.10;;;;;;;;;;5076701;28;20455;-43
2021/08/21 03:41:14;;;;;;;4.43;3.50;;;;;;;;;;5079708;28;20167;-43
2021/08/21 03:43:40;;;;;;;4.40;3.47;;;;;;;;;;5097713;28;20173;-43
2021/08/21 03:46:07;;;;;;;3.92;3.50;;;;;;;;;;5095063;28;20181;-43
2021/08/21 03:48:33;;;;;;;6.95;3.90;;;;;;;;;;5095284;28;20178;-44
2021/08/21 03:50:59;;;;;;;3.70;3.40;;;;;;;;;;5086907;28;20205;-43
2021/08/21 03:53:25;;;;;;;3.20;2.90;;;;;;;;;;5090307;28;20469;-42
2021/08/21 03:55:51;;;;;;;4.13;3.72;;;;;;;;;;5076228;28;20251;-43
2021/08/21 03:58:17;;;;;;;4.35;3.95;;;;;;;;;;5093402;28;20205;-43
2021/08/21 04:00:44;;;;;;;4.32;3.60;;;;;;;;;;5081620;28;20283;-43
2021/08/21 04:03:10;;;;;;;5.07;3.40;;;;;;;;;;5092286;28;20276;-43
2021/08/21 04:05:36;;;;;;;4.88;3.35;;;;;;;;;;5092366;28;20182;-43
2021/08/21 04:08:03;;;;;;;4.00;3.60;;;;;;;;;;5078028;28;20239;-43
2021/08/21 04:10:29;;;;;;;4.35;3.53;;;;;;;;;;5076712;28;20194;-43
2021/08/21 04:12:55;;;;;;;5.65;3.67;;;;;;;;;;5076868;28;20583;-43
2021/08/21 04:15:21;;;;;;;4.05;3.50;;;;;;;;;;5083501;28;20174;-43
2021/08/21 04:17:47;;;;;;;3.70;3.40;;;;;;;;;;5096121;28;20215;-43
2021/08/21 04:20:13;;;;;;;4.03;3.63;;;;;;;;;;5093379;28;20181;-43
2021/08/21 04:22:39;;;;;;;4.40;4.00;;;;;;;;;;5087142;28;20173;-43
2021/08/21 04:25:05;;;;;;;3.55;3.25;;;;;;;;;;5096913;28;20181;-43
2021/08/21 04:27:31;;;;;;;4.15;3.78;;;;;;;;;;5078573;28;20189;-43
2021/08/21 04:29:57;;;;;;;5.00;3.60;;;;;;;;;;5085946;28;20458;-43
2021/08/21 04:32:23;;;;;;;4.07;3.33;;;;;;;;;;5096526;28;20213;-43
2021/08/21 04:34:49;;;;;;;4.28;3.17;;;;;;;;;;5087104;28;20226;-43
2021/08/21 04:37:16;;;;;;;4.40;3.50;;;;;;;;;;5083438;28;20450;-43
2021/08/21 04:39:42;;;;;;;6.00;3.42;;;;;;;;;;5076212;28;20162;-43
2021/08/21 04:42:08;;;;;;;6.30;3.22;;;;;;;;;;5081068;28;20261;-43
2021/08/21 04:44:34;;;;;;;5.63;4.15;;;;;;;;;;5091640;28;20174;-43
2021/08/21 04:47:00;;;;;;;3.63;3.22;;;;;;;;;;5082495;28;20272;-43
2021/08/21 04:49:26;;;;;;;5.75;4.00;;;;;;;;;;5076519;28;20245;-43
2021/08/21 04:51:54;;;;;;;4.32;3.10;;;;;;;;;;5087643;28;20520;-43
2021/08/21 04:54:20;;;;;;;3.45;3.15;;;;;;;;;;5076134;28;20681;-43
2021/08/21 04:56:49;;;;;;;5.50;3.70;;;;;;;;;;5081165;28;20177;-43
2021/08/21 04:59:15;;;;;;;4.20;3.17;;;;;;;;;;5095566;28;20185;-42
2021/08/21 05:01:41;;;;;;;3.47;3.17;;;;;;;;;;5095563;28;20206;-43
2021/08/21 05:04:07;;;;;;;4.10;3.70;;;;;;;;;;5095842;28;20183;-43
2021/08/21 05:06:33;;;;;;;4.78;3.17;;;;;;;;;;5080614;28;20449;-43
2021/08/21 05:08:59;;;;;;;4.40;3.25;;;;;;;;;;5085367;28;20213;-43
2021/08/21 05:11:26;;;;;;;3.70;3.40;;;;;;;;;;5087309;28;20313;-43
2021/08/21 05:13:52;;;;;;;4.07;3.72;;;;;;;;;;5075594;28;20245;-43
2021/08/21 05:16:19;;;;;;;3.78;3.33;;;;;;;;;;5086310;28;20253;-43
2021/08/21 05:18:56;;;;;;;7.25;3.60;;;;;;;;;;5095171;28;20190;-43
2021/08/21 05:21:31;;;;;;;4.20;3.80;;;;;;;;;;5091574;28;20189;-43
2021/08/21 05:23:57;;;;;;;5.80;3.63;;;;;;;;;;5095591;28;20192;-43
2021/08/21 05:26:23;;;;;;;3.85;3.33;;;;;;;;;;5087723;28;20175;-43
2021/08/21 05:28:49;;;;;;;4.10;3.70;;;;;;;;;;5074848;28;20244;-43
2021/08/21 05:31:15;;;;;;;3.92;3.33;;;;;;;;;;5085556;28;20193;-43
2021/08/21 05:33:41;;;;;;;4.18;3.78;;;;;;;;;;5095208;28;20185;-43
2021/08/21 05:36:07;;;;;;;3.42;3.13;;;;;;;;;;5091380;28;20174;-43
2021/08/21 05:38:33;;;;;;;4.72;3.83;;;;;;;;;;5094802;28;20192;-43
2021/08/21 05:40:59;;;;;;;3.85;3.45;;;;;;;;;;5095537;28;20174;-43
2021/08/21 05:43:25;;;;;;;5.38;3.50;;;;;;;;;;5075156;28;20236;-43
2021/08/21 05:45:51;;;;;;;4.45;3.67;;;;;;;;;;5074826;28;20607;-43
2021/08/21 05:48:17;;;;;;;7.57;3.92;;;;;;;;;;5082277;28;20189;-43
2021/08/21 05:50:43;;;;;;;4.55;3.50;;;;;;;;;;5084914;28;20231;-43
2021/08/21 05:53:09;;;;;;;7.47;3.55;;;;;;;;;;5091180;28;20208;-43
2021/08/21 05:55:35;;;;;;;4.13;3.47;;;;;;;;;;5093810;28;20250;-43
2021/08/21 05:58:01;;;;;;;4.13;3.72;;;;;;;;;;5074224;28;20273;-43
2021/08/21 06:00:27;;;;;;;5.55;3.92;;;;;;;;;;5081834;28;20542;-43
2021/08/21 06:02:53;;;;;;;4.82;3.80;;;;;;;;;;5094208;28;20197;-43
2021/08/21 06:05:19;;;;;;;3.90;3.20;;;;;;;;;;5090439;28;20265;-43
2021/08/21 06:07:45;;;;;;;4.20;3.53;;;;;;;;;;5084218;28;20181;-43
2021/08/21 06:10:11;;;;;;;4.10;3.70;;;;;;;;;;5085773;28;20238;-43
2021/08/21 06:12:37;;;;;;;3.90;3.50;;;;;;;;;;5074956;28;20569;-43
2021/08/21 06:15:04;;;;;;;4.38;3.67;;;;;;;;;;5074505;28;20178;-42
2021/08/21 06:17:30;;;;;;;4.03;3.72;;;;;;;;;;5064219;28;20173;-43
2021/08/21 06:19:56;;;;;;;4.38;3.55;;;;;;;;;;5090786;28;20263;-43
2021/08/21 06:22:22;;;;;;;4.63;3.70;;;;;;;;;;5086049;28;20202;-43
2021/08/21 06:24:48;;;;;;;4.75;3.90;;;;;;;;;;5080963;28;20201;-43
2021/08/21 06:27:15;;;;;;;4.00;3.40;;;;;;;;;;5074651;28;20565;-43
2021/08/21 06:29:41;;;;;;;4.07;3.67;;;;;;;;;;5074270;28;20581;-43
2021/08/21 06:32:08;;;;;;;3.85;3.50;;;;;;;;;;5089548;28;20184;-43
2021/08/21 06:34:34;;;;;;;4.13;3.72;;;;;;;;;;5094434;28;20181;-43
2021/08/21 06:37:00;;;;;;;5.95;3.88;;;;;;;;;;5079569;28;20178;-43
2021/08/21 06:39:26;;;;;;;4.75;3.63;;;;;;;;;;5074515;28;20162;-43
2021/08/21 06:41:53;;;;;;;3.95;3.55;;;;;;;;;;5081673;28;20192;-43
2021/08/21 06:44:19;;;;;;;4.90;3.28;;;;;;;;;;5092373;28;20181;-43
2021/08/21 06:46:45;;;;;;;4.00;3.60;;;;;;;;;;5094317;28;20182;-43
2021/08/21 06:49:11;;;;;;;4.10;3.63;;;;;;;;;;5088929;28;20175;-43
2021/08/21 06:51:37;;;;;;;4.30;3.90;;;;;;;;;;5075410;28;20229;-43
2021/08/21 06:54:03;;;;;;;4.18;3.70;;;;;;;;;;5075317;28;20225;-43
2021/08/21 06:56:30;;;;;;;6.07;3.60;;;;;;;;;;5074473;28;20174;-43
2021/08/21 06:58:56;;;;;;;4.25;3.85;;;;;;;;;;5079010;28;20420;-43
2021/08/21 07:01:22;;;;;;;3.45;3.15;;;;;;;;;;5089220;28;20479;-43
2021/08/21 07:03:48;;;;;;;4.15;3.63;;;;;;;;;;5094160;28;20185;-43
2021/08/21 07:06:14;;;;;;;4.82;3.20;;;;;;;;;;5085824;28;20178;-43
2021/08/21 07:08:40;;;;;;;4.82;3.35;;;;;;;;;;5075424;28;20217;-43
2021/08/21 07:11:06;;;;;;;4.30;3.83;;;;;;;;;;5084445;28;20229;-43
2021/08/21 07:13:32;;;;;;;5.55;3.88;;;;;;;;;;5074033;28;20170;-43
2021/08/21 07:15:58;;;;;;;7.18;4.85;;;;;;;;;;5082574;28;20174;-44
2021/08/21 07:18:24;;;;;;;5.95;4.38;;;;;;;;;;5090173;28;20529;-43
2021/08/21 07:20:50;;;;;;;6.88;4.13;;;;;;;;;;5085881;28;20605;-43
2021/08/21 07:23:16;;;;;;;5.75;4.13;;;;;;;;;;5087956;28;20261;-43
2021/08/21 07:25:44;;;;;;;6.57;4.25;;;;;;;;;;5094261;28;20177;-43
2021/08/21 07:28:10;;;;;;;5.28;4.18;;;;;;;;;;5093202;28;20174;-43
2021/08/21 07:30:36;;;;;;;4.70;3.85;;;;;;;;;;5095436;28;20277;-43
2021/08/21 07:33:02;;;;;;;4.28;3.88;;;;;;;;;;5084989;28;20198;-43
2021/08/21 07:35:28;;;;;;;4.82;3.92;;;;;;;;;;5090400;28;20213;-43
2021/08/21 07:37:54;;;;;;;4.78;4.10;;;;;;;;;;5089726;28;20226;-43
2021/08/21 07:40:20;;;;;;;4.70;3.92;;;;;;;;;;5097725;28;20169;-43
2021/08/21 07:42:46;;;;;;;6.15;3.80;;;;;;;;;;5092876;28;20185;-43
2021/08/21 07:45:13;;;;;;;5.70;4.18;;;;;;;;;;5097186;28;20549;-43
2021/08/21 07:47:39;;;;;;;5.18;3.70;;;;;;;;;;5080300;28;20185;-43
2021/08/21 07:50:05;;;;;;;4.57;3.55;;;;;;;;;;5078661;28;20981;-43
2021/08/21 07:52:31;;;;;;;4.75;3.80;;;;;;;;;;5087694;28;20561;-43
2021/08/21 07:54:57;;;;;;;7.50;5.05;;;;;;;;;;5077102;28;20163;-43
2021/08/21 07:57:24;;;;;;;7.63;3.40;;;;;;;;;;5076575;28;20783;-43
2021/08/21 07:59:50;;;;;;;6.53;3.95;;;;;;;;;;5093554;28;20212;-43
2021/08/21 08:02:16;;;;;;;6.63;3.85;;;;;;;;;;5096435;28;20236;-43
2021/08/21 08:04:42;;;;;;;6.13;3.92;;;;;;;;;;5095683;28;20480;-43
2021/08/21 08:07:08;;;;;;;6.40;3.65;;;;;;;;;;5087591;28;20178;-44
2021/08/21 08:09:34;;;;;;;8.70;4.10;;;;;;;;;;5078427;28;20209;-43
2021/08/21 08:12:00;;;;;;;4.95;3.97;;;;;;;;;;5096904;28;20205;-43
2021/08/21 08:14:26;;;;;;;5.10;3.53;;;;;;;;;;5097124;28;20421;-43
2021/08/21 08:16:52;;;;;;;12.82;3.65;;;;;;;;;;5084829;28;20210;-43
2021/08/21 08:19:18;;;;;;;4.35;3.58;;;;;;;;;;5096003;28;20241;-43
2021/08/21 08:21:44;;;;;;;6.85;3.50;;;;;;;;;;5084183;28;20216;-43
2021/08/21 08:24:11;;;;;;;6.13;3.92;;;;;;;;;;5096739;28;20916;-43
2021/08/21 08:26:37;;;;;;;3.53;3.10;;;;;;;;;;5096922;28;20190;-43
2021/08/21 08:29:03;;;;;;;3.92;3.45;;;;;;;;;;5096421;28;20537;-43
2021/08/21 08:31:29;;;;;;;4.18;3.78;;;;;;;;;;5081470;28;20210;-43
2021/08/21 08:33:55;;;;;;;4.90;3.60;;;;;;;;;;5084488;28;20253;-43
2021/08/21 08:36:21;;;;;;;4.57;3.72;;;;;;;;;;5094697;28;20185;-43
2021/08/21 08:38:47;;;;;;;8.65;3.92;;;;;;;;;;5095773;28;20166;-43
2021/08/21 08:41:13;;;;;;;4.07;3.47;;;;;;;;;;5094770;28;20418;-43
2021/08/21 08:43:42;;;;;;;4.78;3.85;;;;;;;;;;5075707;28;20545;-43
2021/08/21 08:46:09;;;;;;;5.10;3.65;;;;;;;;;;5079602;28;20457;-43
2021/08/21 08:48:37;;;;;;;3.55;2.97;;;;;;;;;;5085180;28;20181;-43
2021/08/21 08:51:03;;;;;;;3.65;3.28;;;;;;;;;;5091944;28;20588;-43
2021/08/21 08:53:29;;;;;;;4.43;3.13;;;;;;;;;;5078444;28;20569;-43
2021/08/21 08:55:56;;;;;;;5.88;2.78;;;;;;;;;;5076015;28;20166;-43
2021/08/21 08:58:22;;;;;;;3.38;3.00;;;;;;;;;;5076682;28;20185;-43
2021/08/21 09:00:48;;;;;;;4.15;3.10;;;;;;;;;;5075616;28;20273;-43
2021/08/21 09:03:21;;;;;;;4.28;2.80;;;;;;;;;;5091855;28;20346;-43
2021/08/21 09:05:47;;;;;;;3.30;3.00;;;;;;;;;;5085695;28;20262;-43
2021/08/21 09:08:30;;;;;;;2.53;2.28;;;;;;;;;;5090370;28;20845;-43
2021/08/21 09:11:00;;;;;;;3.13;2.67;;;;;;;;;;5091753;28;20190;-43
2021/08/21 09:13:26;;;;;;;3.90;2.60;;;;;;;;;;5082530;28;20220;-43
2021/08/21 09:15:54;;;;;;;2.70;2.50;;;;;;;;;;5087587;28;20202;-43
2021/08/21 09:18:30;;;;;;;2.90;2.65;;;;;;;;;;5073932;28;20163;-44
2021/08/21 09:21:00;;;;;;;5.03;2.80;;;;;;;;;;5088689;28;20204;-44
2021/08/21 09:23:30;;;;;;;3.15;2.88;;;;;;;;;;5081981;28;20488;-43
2021/08/21 09:25:56;;;;;;;2.40;2.20;;;;;;;;;;5086830;28;20188;-43
2021/08/21 09:28:23;;;;;;;2.70;2.45;;;;;;;;;;5088074;28;20183;-43
2021/08/21 09:31:00;;;;;;;3.83;2.40;;;;;;;;;;5077484;28;20199;-44
2021/08/21 09:33:26;;;;;;;2.83;2.63;;;;;;;;;;5075075;28;20166;-44
2021/08/21 09:35:52;;;;;;;3.80;2.90;;;;;;;;;;5085034;28;20193;-44
2021/08/21 09:38:18;;;;;;;4.35;2.92;;;;;;;;;;5074523;28;20619;-44
2021/08/21 09:40:44;;;;;;;3.40;3.10;;;;;;;;;;5075153;28;20206;-44
2021/08/21 09:43:21;;;;;;;4.32;2.80;;;;;;;;;;5092739;28;20753;-44
2021/08/21 09:45:47;;;;;;;3.22;2.92;;;;;;;;;;5094251;28;20178;-44
2021/08/21 09:48:13;;;;;;;2.90;2.58;;;;;;;;;;5085929;28;20261;-44
2021/08/21 09:50:43;;;;;;;2.88;2.67;;;;;;;;;;5088562;28;20226;-44
2021/08/21 09:53:10;;;;;;;3.20;2.50;;;;;;;;;;5074929;28;20182;-44
2021/08/21 09:55:37;;;;;;;3.05;2.85;;;;;;;;;;5082318;28;20177;-44
2021/08/21 09:58:03;;;;;;;2.88;2.67;;;;;;;;;;5094290;28;20177;-43
2021/08/21 10:00:30;;;;;;;7.90;3.22;;;;;;;;;;5095200;28;20175;-43
2021/08/21 10:02:56;;;;;;;3.25;2.47;;;;;;;;;;5094548;28;20229;-43
2021/08/21 10:05:23;;;;;;;3.60;2.42;;;;;;;;;;5088644;28;20550;-43
2021/08/21 10:07:55;;;;;;;2.42;2.22;;;;;;;;;;5081604;28;20458;-43
2021/08/21 10:10:23;;;;;;;3.65;2.40;;;;;;;;;;5094561;28;20196;-43
2021/08/21 10:12:53;;;;;;;4.15;2.33;;;;;;;;;;5094727;28;20482;-43
2021/08/21 10:15:20;;;;;;;2.60;2.40;;;;;;;;;;5093937;28;20171;-43
2021/08/21 10:17:47;;;;;;;3.05;2.10;;;;;;;;;;5094345;28;20173;-43
2021/08/21 10:20:14;;;;;;;2.50;2.30;;;;;;;;;;5079494;28;20712;-43
2021/08/21 10:22:41;;;;;;;2.25;2.05;;;;;;;;;;5084208;28;20221;-44
2021/08/21 10:25:08;;;;;;;2.10;2.00;;;;;;;;;;5085657;28;20621;-44
2021/08/21 10:27:37;;;;;;;2.50;2.30;;;;;;;;;;5092941;28;20213;-44
2021/08/21 10:30:06;;;;;;;2.33;2.10;;;;;;;;;;5094434;28;20474;-44
2021/08/21 10:32:33;;;;;;;1.98;1.88;;;;;;;;;;5074847;28;20191;-44
2021/08/21 10:35:00;;;;;;;2.00;1.85;;;;;;;;;;5091813;28;20447;-44
2021/08/21 10:37:33;;;;;;;1.88;1.77;;;;;;;;;;5082382;28;20173;-44
2021/08/21 10:40:00;;;;;;;2.35;2.15;;;;;;;;;;5094461;28;20561;-44
2021/08/21 10:42:25;;;;;;;2.03;1.90;;;;;;;;;;5080197;28;20175;-44
2021/08/21 10:44:52;;;;;;;2.00;1.90;;;;;;;;;;5074437;28;20426;-44
2021/08/21 10:47:31;;;;;;;1.90;1.80;;;;;;;;;;5073982;28;20255;-44
2021/08/21 10:49:58;;;;;;;1.90;1.75;;;;;;;;;;5076939;28;20659;-44
2021/08/21 10:52:44;;;;;;;2.05;1.95;;;;;;;;;;5082915;28;20190;-44
2021/08/21 10:55:20;;;;;;;2.05;1.90;;;;;;;;;;5093953;28;20174;-44
2021/08/21 10:57:56;;;;;;;2.25;2.00;;;;;;;;;;5086520;28;20252;-44
2021/08/21 11:00:42;;;;;;;3.28;2.20;;;;;;;;;;5094250;28;20347;-44
2021/08/21 11:03:10;;;;;;;2.80;1.60;;;;;;;;;;5080314;28;20217;-44
2021/08/21 11:05:55;;;;;;;2.58;1.85;;;;;;;;;;5089449;28;20175;-44
2021/08/21 11:08:22;;;;;;;3.90;2.00;;;;;;;;;;5097569;28;20181;-44
2021/08/21 11:10:48;;;;;;;2.38;1.88;;;;;;;;;;5097971;28;20280;-44
2021/08/21 11:13:33;;;;;;;1.80;1.70;;;;;;;;;;5094968;28;20174;-44
2021/08/21 11:16:00;;;;;;;2.40;2.20;;;;;;;;;;5082051;28;20177;-44
2021/08/21 11:18:26;;;;;;;1.77;1.67;;;;;;;;;;5081607;28;20190;-44
2021/08/21 11:20:52;;;;;;;2.47;1.88;;;;;;;;;;5089343;28;20178;-44
2021/08/21 11:23:19;;;;;;;1.88;1.70;;;;;;;;;;5093437;28;20166;-44
2021/08/21 11:25:45;;;;;;;2.08;1.85;;;;;;;;;;5097720;28;20186;-44
2021/08/21 11:28:15;;;;;;;2.15;1.70;;;;;;;;;;5097155;28;20590;-45
2021/08/21 11:30:41;;;;;;;2.17;1.98;;;;;;;;;;5087007;28;20193;-45
2021/08/21 11:33:07;;;;;;;2.83;1.95;;;;;;;;;;5097607;28;20311;-44
2021/08/21 11:35:54;;;;;;;2.30;2.10;;;;;;;;;;5088786;28;20174;-44
2021/08/21 11:38:26;;;;;;;1.70;1.60;;;;;;;;;;5080762;28;20569;-44
2021/08/21 11:40:53;;;;;;;1.58;1.42;;;;;;;;;;5077351;28;20174;-44
2021/08/21 11:43:29;;;;;;;3.08;1.52;;;;;;;;;;5096411;28;20185;-44
2021/08/21 11:45:56;;;;;;;2.05;1.85;;;;;;;;;;5093227;28;20276;-44
2021/08/21 11:48:29;;;;;;;2.15;1.60;;;;;;;;;;5080085;28;20181;-45
2021/08/21 11:50:55;;;;;;;2.10;1.90;;;;;;;;;;5088547;28;20213;-45
2021/08/21 11:53:22;;;;;;;2.22;2.03;;;;;;;;;;5093291;28;20185;-45
2021/08/21 11:55:50;;;;;;;2.67;2.05;;;;;;;;;;5088635;28;20183;-45
2021/08/21 11:58:16;;;;;;;1.70;1.60;;;;;;;;;;5076426;28;20171;-44
2021/08/21 12:00:45;;;;;;;2.53;2.33;;;;;;;;;;5077071;28;20422;-44
2021/08/21 12:03:12;;;;;;;1.80;1.65;;;;;;;;;;5077978;28;20569;-44
2021/08/21 12:05:39;;;;;;;1.85;1.75;;;;;;;;;;5078180;28;20209;-44
2021/08/21 12:08:14;;;;;;;1.98;1.88;;;;;;;;;;5095037;28;20264;-44
2021/08/21 12:10:51;;;;;;;1.85;1.70;;;;;;;;;;5097051;28;20263;-44
2021/08/21 12:13:19;;;;;;;2.10;1.90;;;;;;;;;;5096724;28;20214;-44
2021/08/21 12:15:46;;;;;;;1.80;1.70;;;;;;;;;;5096203;28;20170;-44
2021/08/21 12:18:12;;;;;;;2.00;1.90;;;;;;;;;;5076839;28;20542;-44
2021/08/21 12:20:39;;;;;;;1.80;1.70;;;;;;;;;;5083385;28;20184;-44
2021/08/21 12:23:07;;;;;;;1.73;1.63;;;;;;;;;;5082968;28;20473;-44
2021/08/21 12:25:45;;;;;;;1.73;1.60;;;;;;;;;;5076803;28;20689;-44
2021/08/21 12:28:12;;;;;;;2.15;2.03;;;;;;;;;;5075822;28;20593;-44
2021/08/21 12:30:38;;;;;;;2.00;1.75;;;;;;;;;;5082455;28;20202;-44
2021/08/21 12:33:11;;;;;;;1.85;1.75;;;;;;;;;;5096429;28;20166;-44
2021/08/21 12:35:37;;;;;;;2.25;1.95;;;;;;;;;;5087338;28;20235;-44
2021/08/21 12:38:04;;;;;;;1.80;1.70;;;;;;;;;;5089034;28;20476;-44
2021/08/21 12:40:30;;;;;;;2.10;1.90;;;;;;;;;;5081901;28;20572;-44
2021/08/21 12:43:06;;;;;;;1.92;1.80;;;;;;;;;;5080399;28;20235;-45
2021/08/21 12:45:42;;;;;;;2.25;1.85;;;;;;;;;;5089581;28;20565;-45
2021/08/21 12:48:08;;;;;;;2.38;1.70;;;;;;;;;;5095685;28;20165;-44
2021/08/21 12:50:41;;;;;;;1.85;1.75;;;;;;;;;;5089551;28;20194;-44
2021/08/21 12:53:08;;;;;;;2.60;2.33;;;;;;;;;;5089709;28;20523;-44
2021/08/21 12:55:34;;;;;;;1.77;1.67;;;;;;;;;;5095601;28;20182;-44
2021/08/21 12:58:06;;;;;;;1.92;1.80;;;;;;;;;;5093846;28;20592;-44
2021/08/21 13:00:33;;;;;;;1.80;1.67;;;;;;;;;;5075690;28;20239;-44
2021/08/21 13:03:11;;;;;;;1.60;1.50;;;;;;;;;;5075793;28;20187;-44
2021/08/21 13:05:37;;;;;;;2.72;1.75;;;;;;;;;;5079499;28;20178;-44
2021/08/21 13:08:08;;;;;;;2.67;1.77;;;;;;;;;;5076185;28;20193;-44
2021/08/21 13:10:36;;;;;;;2.15;1.95;;;;;;;;;;5092888;28;20518;-44
2021/08/21 13:13:03;;;;;;;2.65;1.70;;;;;;;;;;5095301;28;20261;-44
2021/08/21 13:15:29;;;;;;;1.65;1.55;;;;;;;;;;5095616;28;20434;-44
2021/08/21 13:17:55;;;;;;;2.55;1.83;;;;;;;;;;5089309;28;20230;-44
2021/08/21 13:20:22;;;;;;;1.65;1.55;;;;;;;;;;5078780;28;20261;-44
2021/08/21 13:22:50;;;;;;;1.70;1.60;;;;;;;;;;5084265;28;20197;-44
2021/08/21 13:25:16;;;;;;;2.63;1.70;;;;;;;;;;5093279;28;20554;-44
2021/08/21 13:27:42;;;;;;;2.50;1.50;;;;;;;;;;5076283;28;20187;-45
2021/08/21 13:30:09;;;;;;;1.75;1.65;;;;;;;;;;5075378;28;20643;-45
2021/08/21 13:32:35;;;;;;;2.60;1.80;;;;;;;;;;5093007;28;20483;-45
2021/08/21 13:35:01;;;;;;;1.85;1.67;;;;;;;;;;5093831;28;20248;-44
2021/08/21 13:37:28;;;;;;;1.77;1.67;;;;;;;;;;5083614;28;20178;-44
2021/08/21 13:39:54;;;;;;;1.50;1.38;;;;;;;;;;5093606;28;20175;-44
2021/08/21 13:42:20;;;;;;;3.28;1.60;;;;;;;;;;5090711;28;20185;-44
2021/08/21 13:44:46;;;;;;;2.30;1.73;;;;;;;;;;5095285;28;20170;-44
2021/08/21 13:47:12;;;;;;;2.00;1.80;;;;;;;;;;5081356;28;20185;-44
2021/08/21 13:49:39;;;;;;;1.75;1.65;;;;;;;;;;5080839;28;20171;-45
2021/08/21 13:52:05;;;;;;;2.78;1.42;;;;;;;;;;5091150;28;20202;-44
2021/08/21 13:54:32;;;;;;;1.70;1.60;;;;;;;;;;5084329;28;20273;-44
2021/08/21 13:56:58;;;;;;;2.40;1.80;;;;;;;;;;5075449;28;20174;-44
2021/08/21 13:59:24;;;;;;;3.97;1.90;;;;;;;;;;5074392;28;20162;-44
2021/08/21 14:01:51;;;;;;;3.40;1.85;;;;;;;;;;5088031;28;20586;-44
2021/08/21 14:04:17;;;;;;;2.20;1.70;;;;;;;;;;5094112;28;20442;-44
2021/08/21 14:06:43;;;;;;;2.38;1.83;;;;;;;;;;5090807;28;20466;-44
2021/08/21 14:09:09;;;;;;;3.85;2.13;;;;;;;;;;5094414;28;20170;-44
2021/08/21 14:11:36;;;;;;;2.35;1.52;;;;;;;;;;5094763;28;20202;-44
2021/08/21 14:14:03;;;;;;;2.40;1.80;;;;;;;;;;5081793;28;20301;-44
2021/08/21 14:16:29;;;;;;;2.00;1.55;;;;;;;;;;5074653;28;20186;-44
2021/08/21 14:18:55;;;;;;;1.63;1.50;;;;;;;;;;5087958;28;20217;-44
2021/08/21 14:21:21;;;;;;;3.90;2.10;;;;;;;;;;5082528;28;20794;-44
2021/08/21 14:23:47;;;;;;;2.38;2.00;;;;;;;;;;5094054;28;20217;-44
2021/08/21 14:26:13;;;;;;;4.07;2.33;;;;;;;;;;5088526;28;20178;-44
2021/08/21 14:28:40;;;;;;;2.40;1.90;;;;;;;;;;5074182;28;20596;-44
2021/08/21 14:31:06;;;;;;;2.15;1.77;;;;;;;;;;5078757;28;20205;-44
2021/08/21 14:33:32;;;;;;;1.80;1.70;;;;;;;;;;5094470;28;20173;-44
2021/08/21 14:35:59;;;;;;;2.60;1.92;;;;;;;;;;5085342;28;20178;-44
2021/08/21 14:38:25;;;;;;;2.42;2.13;;;;;;;;;;5090197;28;20184;-44
2021/08/21 14:40:51;;;;;;;2.80;2.22;;;;;;;;;;5096085;28;20185;-44
2021/08/21 14:43:17;;;;;;;3.33;1.83;;;;;;;;;;5079500;28;20193;-44
2021/08/21 14:45:43;;;;;;;2.03;1.90;;;;;;;;;;5079679;28;20278;-44